Corrego do Ouro, Brazil
Current Conditions -  °F | °C
As of 12:00 PM on Tuesday 27 Jan 2015 (Local Time) from SBGO Reporting Station
Scattered Clouds Scattered Clouds  
Wind Chill: 84°   Ceiling: Unl
Heat Index: 84°   Visibility: 6mi
Dew Point: 61°   Wind: 5mph
Humidity: 45%   Direction: 40°NE
Pressure: 30.09"   Gusts: NA
Location:  16.29°S, 50.55°W
Report Text: SBGO 271400Z 04004KT 9999 SCT010 FEW035TCU 29/16 Q1019
Loading
Personal Weather Stations






























Interactive Weather Map New forecast layout! Learn more

10-Day Weather Forecast

Advertisements
Track Severe Weather on mobile